Time;durP1;ratioP1;P1;durP2;ratioP2;P2;SDS_P1;SDS_P2;PMS_P1;PMS_P2;Temp;Humidity;BMP_temperature;BMP_pressure;BME280_temperature;BME280_humidity;BME280_pressure;Samples;Min_cycle;Max_cycle;Signal;HPM_P1;HPM_P2
2023/07/17 03:59:59;;;;;;;15.38;11.27;;;;;;;23.23;100.00;100354.56;6537148;26;20361;-86
2023/07/17 04:03:03;;;;;;;14.43;11.12;;;;;;;23.29;100.00;100359.00;6549925;27;32983;-87
2023/07/17 04:06:08;;;;;;;15.73;11.30;;;;;;;23.38;100.00;100359.34;6514986;27;33611;-86
2023/07/17 04:09:13;;;;;;;14.10;11.57;;;;;;;23.49;100.00;100369.31;6532279;27;33622;-86
2023/07/17 04:12:16;;;;;;;18.40;11.43;;;;;;;23.58;100.00;100373.22;6531792;27;33364;-86
2023/07/17 04:15:19;;;;;;;14.05;11.40;;;;;;;23.64;100.00;100369.41;6514475;27;33519;-86
2023/07/17 04:18:22;;;;;;;13.82;11.25;;;;;;;23.70;100.00;100356.56;6532546;27;34497;-90
2023/07/17 04:21:25;;;;;;;13.52;10.95;;;;;;;23.80;100.00;100364.88;6531819;27;34287;-90
2023/07/17 04:24:28;;;;;;;12.60;10.45;;;;;;;23.96;100.00;100361.12;6514096;27;33513;-91
2023/07/17 04:27:30;;;;;;;12.82;11.35;;;;;;;24.06;100.00;100362.25;6514139;27;33405;-91
2023/07/17 04:30:37;;;;;;;17.62;11.85;;;;;;;24.20;100.00;100367.00;6538481;27;34411;-87
2023/07/17 04:33:43;;;;;;;15.80;12.10;;;;;;;24.27;100.00;100371.44;6526847;27;33946;-87
2023/07/17 04:36:46;;;;;;;13.75;10.80;;;;;;;24.37;100.00;100371.47;6542416;27;33732;-87
2023/07/17 04:39:49;;;;;;;12.10;10.45;;;;;;;24.47;100.00;100378.97;6537231;27;33484;-86
2023/07/17 04:42:52;;;;;;;12.45;9.90;;;;;;;24.62;100.00;100368.00;6532738;27;33187;-86
2023/07/17 04:45:55;;;;;;;13.07;10.07;;;;;;;24.77;100.00;100378.22;6513931;27;33450;-87
2023/07/17 04:48:59;;;;;;;12.65;9.98;;;;;;;24.78;100.00;100371.63;6531907;27;34296;-87
2023/07/17 04:52:01;;;;;;;11.80;9.45;;;;;;;24.94;100.00;100373.28;6550888;27;33546;-87
2023/07/17 04:55:05;;;;;;;12.63;10.00;;;;;;;25.05;100.00;100380.47;6553284;27;33564;-87
2023/07/17 04:58:08;;;;;;;12.82;9.93;;;;;;;25.20;100.00;100387.13;6551627;27;33240;-87
2023/07/17 05:01:12;;;;;;;12.10;9.45;;;;;;;25.30;100.00;100382.44;6532211;27;34379;-87
2023/07/17 05:04:14;;;;;;;12.40;10.07;;;;;;;25.40;100.00;100386.31;6551897;27;33589;-87
2023/07/17 05:07:17;;;;;;;13.23;10.07;;;;;;;25.44;100.00;100379.94;6514012;27;33576;-87
2023/07/17 05:10:21;;;;;;;13.73;10.10;;;;;;;25.53;100.00;100378.28;6551790;27;33084;-87
2023/07/17 05:13:25;;;;;;;11.75;9.20;;;;;;;25.67;100.00;100378.53;6531988;27;33241;-86
2023/07/17 05:16:29;;;;;;;11.90;9.30;;;;;;;25.76;100.00;100379.63;6532315;27;33875;-86
2023/07/17 05:19:32;;;;;;;14.57;8.98;;;;;;;25.79;100.00;100373.56;6514564;27;33387;-86
2023/07/17 05:22:35;;;;;;;10.63;8.63;;;;;;;25.98;100.00;100368.31;6532540;27;31932;-87
2023/07/17 05:25:38;;;;;;;9.55;8.52;;;;;;;26.10;100.00;100365.22;6551403;27;33734;-87
2023/07/17 05:28:41;;;;;;;10.68;9.00;;;;;;;26.17;100.00;100364.91;6555458;27;33420;-87
2023/07/17 05:31:47;;;;;;;13.48;9.60;;;;;;;26.28;100.00;100368.47;6537110;27;34398;-87
2023/07/17 05:34:50;;;;;;;13.75;9.75;;;;;;;26.43;100.00;100374.72;6553528;27;33691;-87
2023/07/17 05:37:56;;;;;;;11.98;9.40;;;;;;;26.43;99.40;100385.78;6544076;27;34900;-86
2023/07/17 05:41:01;;;;;;;11.80;9.40;;;;;;;26.59;97.97;100374.69;6550965;27;33607;-87
2023/07/17 05:44:04;;;;;;;10.57;8.93;;;;;;;26.73;97.10;100372.94;6551425;27;33475;-87
2023/07/17 05:47:07;;;;;;;11.32;8.75;;;;;;;26.82;95.04;100371.25;6551435;27;33667;-87
2023/07/17 05:50:11;;;;;;;10.77;8.50;;;;;;;26.91;95.23;100369.53;6515040;27;33309;-85
2023/07/17 05:53:14;;;;;;;10.00;8.85;;;;;;;27.05;94.00;100374.38;6551145;27;33659;-87
2023/07/17 05:56:17;;;;;;;11.10;8.80;;;;;;;27.09;92.92;100369.97;6532210;27;33479;-85
2023/07/17 05:59:20;;;;;;;13.25;8.95;;;;;;;27.28;91.01;100367.34;6531453;27;33954;-85
2023/07/17 06:02:23;;;;;;;10.23;8.60;;;;;;;27.44;90.39;100370.81;6513733;27;33553;-85
2023/07/17 06:05:26;;;;;;;10.52;8.43;;;;;;;27.55;89.20;100373.19;6552499;27;34143;-85
2023/07/17 06:08:29;;;;;;;9.93;7.97;;;;;;;27.81;88.84;100370.97;6531347;27;33093;-86
2023/07/17 06:11:32;;;;;;;9.65;7.18;;;;;;;27.89;85.68;100374.25;6531370;27;33383;-86
2023/07/17 06:14:35;;;;;;;10.80;6.93;;;;;;;27.95;82.66;100367.53;6543682;27;179608;-86
2023/07/17 06:17:40;;;;;;;9.52;7.78;;;;;;;28.14;82.95;100367.56;6532326;27;33042;-86
2023/07/17 06:20:43;;;;;;;9.63;7.85;;;;;;;28.26;82.87;100370.78;6532243;27;33498;-85
2023/07/17 06:23:46;;;;;;;12.57;8.32;;;;;;;28.40;83.39;100373.63;6532647;27;33385;-86
2023/07/17 06:26:49;;;;;;;9.98;7.87;;;;;;;28.51;83.61;100371.56;6515270;27;34236;-86
2023/07/17 06:29:53;;;;;;;10.40;8.07;;;;;;;28.58;84.72;100369.25;6522013;27;33333;-90
2023/07/17 06:32:55;;;;;;;10.27;7.03;;;;;;;28.71;84.00;100374.88;6535857;27;33959;-90
2023/07/17 06:36:02;;;;;;;10.32;7.18;;;;;;;28.80;81.53;100365.91;6571090;27;33960;-89
2023/07/17 06:39:05;;;;;;;11.55;7.22;;;;;;;28.90;80.95;100369.34;6523529;27;34276;-86
2023/07/17 06:42:08;;;;;;;18.25;7.12;;;;;;;29.01;77.16;100377.50;6532928;27;32983;-86
2023/07/17 06:45:11;;;;;;;7.95;6.30;;;;;;;29.06;74.69;100371.91;6532591;27;33298;-86
2023/07/17 06:48:15;;;;;;;9.75;6.97;;;;;;;29.21;74.34;100368.06;6532502;27;33147;-86
2023/07/17 06:51:17;;;;;;;10.63;6.28;;;;;;;29.23;73.77;100369.41;6514748;27;34620;-86
2023/07/17 06:54:20;;;;;;;12.15;6.25;;;;;;;29.34;72.43;100367.28;6514528;27;33445;-86
2023/07/17 06:57:23;;;;;;;8.00;5.53;;;;;;;29.50;70.99;100363.09;6550777;27;34061;-86
2023/07/17 07:00:26;;;;;;;9.10;5.85;;;;;;;29.68;69.71;100360.59;6550934;27;33510;-86
2023/07/17 07:03:29;;;;;;;5.68;5.03;;;;;;;29.92;68.71;100360.41;6532146;27;33672;-86
2023/07/17 07:06:32;;;;;;;6.68;5.30;;;;;;;29.93;65.46;100360.13;6532363;27;33593;-86
2023/07/17 07:09:35;;;;;;;10.18;5.75;;;;;;;29.97;64.66;100347.25;6515202;27;33166;-86
2023/07/17 07:12:38;;;;;;;9.82;5.97;;;;;;;29.83;65.81;100347.25;6532078;27;33542;-86
2023/07/17 07:15:41;;;;;;;8.90;6.00;;;;;;;30.08;66.49;100349.84;6514102;27;33418;-86
2023/07/17 07:18:44;;;;;;;10.23;6.32;;;;;;;30.28;67.98;100352.22;6532006;27;34934;-86
2023/07/17 07:21:50;;;;;;;7.30;5.87;;;;;;;30.31;65.70;100351.59;6532677;27;33073;-86
2023/07/17 07:24:54;;;;;;;6.65;5.90;;;;;;;30.36;62.99;100357.00;6514746;27;33497;-86
2023/07/17 07:27:56;;;;;;;7.82;5.70;;;;;;;30.34;62.97;100356.53;6513969;27;33813;-86
2023/07/17 07:31:01;;;;;;;9.25;6.22;;;;;;;30.59;63.85;100354.31;6531723;27;34166;-86
2023/07/17 07:34:04;;;;;;;11.48;5.55;;;;;;;30.73;63.21;100346.75;6551468;27;33371;-86
2023/07/17 07:37:07;;;;;;;6.20;5.37;;;;;;;31.06;63.95;100350.13;6551734;27;33499;-86
2023/07/17 07:40:12;;;;;;;7.53;5.95;;;;;;;31.06;59.34;100347.38;6514392;27;34040;-86
2023/07/17 07:43:15;;;;;;;6.18;5.30;;;;;;;31.11;59.19;100346.44;6532410;27;34212;-86
2023/07/17 07:46:18;;;;;;;8.25;5.72;;;;;;;31.18;59.38;100352.34;6531480;27;33472;-86
2023/07/17 07:49:21;;;;;;;9.23;5.50;;;;;;;31.30;59.11;100355.41;6531853;27;33334;-86
2023/07/17 07:52:24;;;;;;;6.55;5.65;;;;;;;31.40;58.74;100346.81;6550958;27;34692;-86
2023/07/17 07:55:27;;;;;;;8.43;5.68;;;;;;;31.52;57.96;100340.66;6531613;27;34498;-86
2023/07/17 07:58:30;;;;;;;6.65;5.32;;;;;;;31.75;57.87;100347.00;6551299;27;34563;-86
2023/07/17 08:01:33;;;;;;;7.57;5.72;;;;;;;31.76;56.23;100354.19;6532615;27;33295;-85
2023/07/17 08:04:36;;;;;;;5.85;5.25;;;;;;;31.79;55.41;100350.75;6551330;27;34343;-86
2023/07/17 08:07:39;;;;;;;6.03;5.30;;;;;;;32.05;54.14;100353.69;6551647;27;34891;-85
2023/07/17 08:10:42;;;;;;;7.87;5.53;;;;;;;32.20;54.75;100346.00;6514917;27;33228;-87
2023/07/17 08:13:45;;;;;;;5.78;5.18;;;;;;;32.38;54.61;100344.09;6532094;27;33472;-86
2023/07/17 08:16:49;;;;;;;8.80;5.62;;;;;;;32.57;53.48;100349.41;6514312;27;33389;-86
2023/07/17 08:19:51;;;;;;;6.35;5.50;;;;;;;32.65;52.65;100345.81;6531648;27;33089;-86
2023/07/17 08:22:57;;;;;;;5.70;5.10;;;;;;;32.43;51.35;100347.53;6515014;27;33884;-87
2023/07/17 08:26:00;;;;;;;6.87;5.45;;;;;;;32.56;51.98;100340.22;6553200;27;33275;-86
2023/07/17 08:29:03;;;;;;;8.40;5.50;;;;;;;32.74;53.42;100336.28;6556858;27;33380;-87
2023/07/17 08:32:07;;;;;;;9.70;6.18;;;;;;;32.71;50.31;100341.72;6519167;27;34067;-87
2023/07/17 08:35:10;;;;;;;8.52;5.15;;;;;;;32.67;50.50;100340.69;6553176;27;33889;-87
2023/07/17 08:38:13;;;;;;;7.22;5.10;;;;;;;32.95;51.79;100344.00;6554096;27;34294;-87
2023/07/17 08:41:16;;;;;;;6.85;4.90;;;;;;;33.04;49.99;100346.81;6553139;27;34312;-87
2023/07/17 08:44:20;;;;;;;7.72;5.45;;;;;;;33.13;49.22;100345.63;6513499;27;34056;-84
2023/07/17 08:47:23;;;;;;;7.00;5.25;;;;;;;33.11;49.57;100347.12;6550306;27;33172;-86
2023/07/17 08:50:26;;;;;;;10.60;5.82;;;;;;;33.19;50.87;100357.44;6550445;27;33873;-87
2023/07/17 08:53:33;;;;;;;9.57;5.43;;;;;;;33.21;51.77;100351.56;6550276;27;33070;-86
2023/07/17 08:56:36;;;;;;;7.80;5.80;;;;;;;33.26;48.75;100354.16;6513703;27;33153;-83
2023/07/17 08:59:39;;;;;;;6.75;5.78;;;;;;;33.28;48.56;100349.88;6513151;27;33287;-83
2023/07/17 09:02:42;;;;;;;8.98;5.75;;;;;;;33.25;49.45;100339.38;6530853;27;34220;-83
2023/07/17 09:05:46;;;;;;;7.50;5.60;;;;;;;33.66;49.22;100342.75;6531429;27;34336;-83
2023/07/17 09:08:49;;;;;;;7.97;5.80;;;;;;;33.97;49.30;100343.28;6531398;27;34104;-83
2023/07/17 09:12:16;;;;;;;8.45;5.85;;;;;;;34.18;47.74;100343.34;6513850;27;33155;-83
2023/07/17 09:15:19;;;;;;;10.70;5.50;;;;;;;34.24;47.20;100349.56;6549888;27;33556;-83
2023/07/17 09:18:26;;;;;;;12.32;5.80;;;;;;;34.16;48.95;100347.62;6512835;27;33581;-83
2023/07/17 09:21:28;;;;;;;6.47;5.43;;;;;;;34.01;47.18;100340.62;6531105;27;33459;-83
2023/07/17 09:24:33;;;;;;;6.28;5.68;;;;;;;34.19;47.47;100344.16;6550839;27;34284;-82
2023/07/17 09:27:52;;;;;;;7.75;5.60;;;;;;;34.44;48.04;100340.38;6550760;27;33040;-83
2023/07/17 09:31:01;;;;;;;8.23;5.75;;;;;;;34.71;45.43;100341.03;6550465;27;33901;-83
2023/07/17 09:34:13;;;;;;;14.32;6.40;;;;;;;34.75;44.82;100330.78;6550815;27;33493;-83
2023/07/17 09:37:16;;;;;;;6.68;5.80;;;;;;;34.45;45.27;100330.81;6549881;27;33673;-83
2023/07/17 09:40:19;;;;;;;5.93;5.32;;;;;;;34.65;46.21;100325.63;6512876;27;34172;-84
2023/07/17 09:43:32;;;;;;;8.82;5.68;;;;;;;34.81;45.39;100326.66;6531797;27;33319;-84
2023/07/17 09:46:37;;;;;;;8.90;5.95;;;;;;;34.98;44.60;100326.50;6550244;27;33423;-84
2023/07/17 09:49:41;;;;;;;7.68;5.72;;;;;;;34.87;44.97;100330.88;6550823;27;34959;-84
2023/07/17 09:52:45;;;;;;;7.72;5.80;;;;;;;35.03;43.97;100324.63;6531306;27;33824;-84
2023/07/17 09:55:50;;;;;;;10.57;5.97;;;;;;;34.99;45.34;100327.31;6550392;27;33146;-84
2023/07/17 09:58:57;;;;;;;9.13;6.20;;;;;;;35.37;43.39;100332.69;6530247;27;34180;-84
2023/07/17 10:02:03;;;;;;;7.68;5.87;;;;;;;35.44;43.13;100327.31;6549906;27;33575;-84
2023/07/17 10:05:06;;;;;;;9.70;5.82;;;;;;;35.30;42.99;100324.03;6549895;27;33644;-87
2023/07/17 10:08:10;;;;;;;9.75;6.37;;;;;;;35.64;42.18;100328.44;6550095;27;33450;-88
2023/07/17 10:11:15;;;;;;;8.10;5.50;;;;;;;35.91;41.40;100328.13;6550088;27;33973;-88
2023/07/17 10:14:19;;;;;;;10.52;6.00;;;;;;;35.99;40.84;100313.19;6513690;27;33248;-84
2023/07/17 10:17:43;;;;;;;8.57;6.12;;;;;;;36.26;40.70;100312.47;6550447;27;33542;-83
2023/07/17 10:20:54;;;;;;;8.13;5.80;;;;;;;36.23;40.89;100313.16;6549875;27;34157;-85
2023/07/17 10:24:04;;;;;;;8.05;5.90;;;;;;;36.59;41.24;100302.25;6550814;27;34130;-85
2023/07/17 10:27:07;;;;;;;8.93;6.00;;;;;;;36.70;42.12;100303.38;6538499;27;33137;-85
2023/07/17 10:30:23;;;;;;;10.68;6.32;;;;;;;37.10;40.82;100294.91;6534895;27;33170;-85
2023/07/17 10:33:35;;;;;;;6.70;5.80;;;;;;;37.56;37.64;100289.75;6534630;27;33832;-83
2023/07/17 10:36:44;;;;;;;8.73;5.90;;;;;;;37.74;38.59;100293.00;6556906;27;33701;-83
2023/07/17 10:39:46;;;;;;;8.35;6.15;;;;;;;38.17;37.51;100285.56;6566216;27;33505;-83
2023/07/17 10:42:49;;;;;;;6.68;6.07;;;;;;;38.11;36.80;100271.00;6513562;27;33814;-83
2023/07/17 10:45:52;;;;;;;8.68;5.97;;;;;;;38.31;37.39;100268.22;6530896;27;33319;-83
2023/07/17 10:49:08;;;;;;;9.25;5.90;;;;;;;38.15;37.53;100270.28;6531077;27;33069;-84
2023/07/17 10:52:11;;;;;;;6.97;6.10;;;;;;;38.71;35.89;100259.44;6550909;27;34102;-84
2023/07/17 10:55:14;;;;;;;10.95;5.90;;;;;;;37.84;35.87;100264.31;6495902;27;32922;-84
2023/07/17 10:58:19;;;;;;;7.07;5.80;;;;;;;36.95;37.78;100265.62;6512715;27;33077;-84
2023/07/17 11:01:22;;;;;;;14.98;6.47;;;;;;;36.87;37.91;100265.78;6549906;27;33334;-84
2023/07/17 11:04:25;;;;;;;6.90;5.68;;;;;;;37.21;38.26;100258.72;6551198;27;33345;-84
2023/07/17 11:07:35;;;;;;;10.38;6.18;;;;;;;37.93;36.25;100261.31;6532365;27;32897;-85
2023/07/17 11:10:42;;;;;;;6.55;5.80;;;;;;;38.87;35.25;100247.28;6551753;27;33568;-85
2023/07/17 11:13:50;;;;;;;7.12;5.80;;;;;;;39.60;34.64;100251.03;6551103;27;34072;-84
2023/07/17 11:16:52;;;;;;;6.95;5.95;;;;;;;39.93;33.02;100246.72;6551302;27;33394;-89
2023/07/17 11:20:00;;;;;;;11.55;6.00;;;;;;;40.45;32.79;100239.38;6531908;27;33051;-89
2023/07/17 11:23:03;;;;;;;8.75;5.80;;;;;;;40.21;32.19;100237.88;6551623;27;33580;-86
2023/07/17 11:26:06;;;;;;;7.93;6.05;;;;;;;39.76;32.01;100234.00;6532088;27;34023;-85
2023/07/17 11:29:09;;;;;;;11.48;6.18;;;;;;;40.58;30.81;100230.28;6514079;27;33260;-85
2023/07/17 11:32:12;;;;;;;8.68;6.47;;;;;;;41.27;29.99;100226.16;6531774;27;32944;-86
2023/07/17 11:35:15;;;;;;;8.90;6.20;;;;;;;42.25;29.85;100223.63;6531836;27;32893;-85
2023/07/17 11:38:20;;;;;;;5.85;5.10;;;;;;;42.95;26.63;100212.97;6548115;27;33423;-86
2023/07/17 11:41:25;;;;;;;6.25;5.15;;;;;;;44.32;25.05;100205.94;6570882;27;35086;-85
2023/07/17 11:44:30;;;;;;;4.95;4.45;;;;;;;44.73;25.08;100193.19;6514834;27;33934;-85
2023/07/17 11:47:33;;;;;;;5.85;4.87;;;;;;;44.84;24.60;100190.25;6532023;27;35052;-85
2023/07/17 11:50:36;;;;;;;7.70;4.78;;;;;;;44.83;23.27;100182.97;6514084;27;33049;-85
2023/07/17 11:53:38;;;;;;;7.80;5.07;;;;;;;45.53;22.67;100189.31;6514397;27;34537;-85
2023/07/17 11:56:43;;;;;;;9.20;5.03;;;;;;;45.71;22.91;100183.44;6532124;27;32936;-84
2023/07/17 11:59:46;;;;;;;5.87;4.70;;;;;;;42.79;26.65;100178.56;6551102;27;34119;-84
2023/07/17 12:02:49;;;;;;;10.35;5.07;;;;;;;40.80;29.12;100174.88;6531937;27;33126;-84
2023/07/17 12:05:52;;;;;;;7.93;5.40;;;;;;;41.74;28.98;100176.47;6517005;27;33322;-85
2023/07/17 12:08:55;;;;;;;8.90;5.12;;;;;;;44.17;26.42;100169.50;6551443;27;33441;-84
2023/07/17 12:11:58;;;;;;;6.97;4.87;;;;;;;44.47;23.55;100175.47;6525746;27;33573;-85
2023/07/17 12:15:01;;;;;;;6.60;4.97;;;;;;;42.37;26.25;100165.91;6560344;27;33918;-83
2023/07/17 12:18:04;;;;;;;8.07;5.55;;;;;;;40.58;28.61;100165.38;6541280;27;33138;-83
2023/07/17 12:21:07;;;;;;;7.53;5.12;;;;;;;39.60;30.13;100163.66;6558791;27;33502;-83
2023/07/17 12:24:10;;;;;;;7.10;5.72;;;;;;;38.88;32.05;100175.75;6560619;27;33091;-83
2023/07/17 12:27:15;;;;;;;6.80;5.62;;;;;;;38.99;32.18;100165.47;6564679;27;33406;-83
2023/07/17 12:30:22;;;;;;;6.00;5.40;;;;;;;39.12;31.83;100166.13;6582868;27;33345;-84
2023/07/17 12:33:25;;;;;;;5.93;5.28;;;;;;;40.72;29.29;100158.25;6562371;27;33392;-83
2023/07/17 12:36:28;;;;;;;9.05;5.20;;;;;;;40.44;28.92;100147.47;6547539;27;33630;-84
2023/07/17 12:39:31;;;;;;;7.00;5.12;;;;;;;39.40;30.66;100148.87;6560184;27;33445;-84
2023/07/17 12:42:34;;;;;;;6.87;5.53;;;;;;;38.58;31.97;100142.59;6555769;27;33988;-84
2023/07/17 12:45:38;;;;;;;5.62;5.03;;;;;;;38.21;32.90;100145.91;6558822;27;33458;-84
2023/07/17 12:48:41;;;;;;;6.60;5.68;;;;;;;37.90;33.22;100146.81;6578217;27;33209;-83
2023/07/17 12:51:43;;;;;;;6.00;5.40;;;;;;;38.13;33.31;100143.31;6540696;27;33218;-84
2023/07/17 12:54:47;;;;;;;12.43;6.05;;;;;;;41.48;29.31;100132.31;6540950;27;33367;-83
2023/07/17 12:57:50;;;;;;;6.32;5.53;;;;;;;44.23;24.69;100122.44;6558729;27;34367;-84
2023/07/17 13:00:53;;;;;;;6.40;4.80;;;;;;;45.84;23.14;100118.25;6541314;27;34173;-84
2023/07/17 13:03:55;;;;;;;5.00;4.22;;;;;;;47.33;21.34;100131.47;6558645;27;33917;-84
2023/07/17 13:06:59;;;;;;;5.55;4.05;;;;;;;44.87;23.47;100121.25;6578275;27;33450;-83
2023/07/17 13:10:04;;;;;;;6.32;4.03;;;;;;;42.17;25.70;100120.12;6558806;27;34148;-84
2023/07/17 13:13:07;;;;;;;5.17;4.13;;;;;;;41.22;27.33;100108.72;6578424;27;32912;-84
2023/07/17 13:16:10;;;;;;;6.25;3.75;;;;;;;40.29;27.43;100116.28;6578017;27;33515;-84
2023/07/17 13:19:13;;;;;;;7.10;3.87;;;;;;;39.29;28.42;100111.28;6578220;27;33457;-84
2023/07/17 13:22:16;;;;;;;6.45;3.75;;;;;;;38.91;29.60;100108.25;6558599;27;34172;-84
2023/07/17 13:25:19;;;;;;;3.33;3.12;;;;;;;38.63;30.69;100107.72;6578424;27;33175;-84
2023/07/17 13:28:21;;;;;;;5.18;3.97;;;;;;;39.21;28.93;100116.78;6540139;27;33353;-87
2023/07/17 13:31:25;;;;;;;5.50;4.07;;;;;;;38.87;30.27;100115.00;6540909;27;34064;-88
2023/07/17 13:34:28;;;;;;;7.22;4.10;;;;;;;38.19;31.38;100120.12;6540654;27;34026;-89
2023/07/17 13:37:31;;;;;;;6.15;4.25;;;;;;;38.18;32.00;100121.31;6558246;27;33356;-88
2023/07/17 13:40:34;;;;;;;6.28;4.00;;;;;;;37.55;33.21;100118.75;6577946;27;33366;-85
2023/07/17 13:43:37;;;;;;;8.05;4.25;;;;;;;37.19;34.59;100124.31;6558497;27;33272;-85
2023/07/17 13:46:44;;;;;;;6.72;4.90;;;;;;;37.13;35.98;100131.38;6577734;27;33378;-84
2023/07/17 13:49:47;;;;;;;6.60;4.90;;;;;;;37.06;35.49;100144.41;6578447;27;33441;-84
2023/07/17 13:52:50;;;;;;;9.05;4.78;;;;;;;37.39;35.48;100144.03;6558189;27;33530;-84
2023/07/17 13:55:52;;;;;;;6.95;4.65;;;;;;;36.71;36.52;100147.91;6558135;27;34368;-84
2023/07/17 13:58:55;;;;;;;8.07;4.85;;;;;;;36.18;38.60;100152.81;6540528;27;33173;-84
2023/07/17 14:01:58;;;;;;;6.72;4.57;;;;;;;36.17;37.96;100152.00;6540686;27;33362;-84
2023/07/17 14:05:01;;;;;;;17.25;5.70;;;;;;;35.97;38.45;100145.37;6541587;27;33467;-84
2023/07/17 14:08:04;;;;;;;5.95;4.80;;;;;;;36.13;39.37;100144.66;6557905;27;33140;-84
2023/07/17 14:11:07;;;;;;;9.52;5.05;;;;;;;36.44;39.03;100135.53;6557776;27;33243;-84
2023/07/17 14:14:10;;;;;;;6.72;4.57;;;;;;;36.66;38.73;100148.19;6558078;27;34818;-84
2023/07/17 14:17:13;;;;;;;12.32;5.12;;;;;;;36.16;40.03;100161.59;6577533;27;33738;-84
2023/07/17 14:20:16;;;;;;;9.45;5.28;;;;;;;35.93;41.14;100171.69;6577314;27;33277;-84
2023/07/17 14:23:19;;;;;;;26.45;6.15;;;;;;;35.23;42.94;100197.84;6577491;27;34515;-84
2023/07/17 14:26:22;;;;;;;8.18;5.72;;;;;;;34.37;46.71;100196.72;6563641;27;33908;-83
2023/07/17 14:29:26;;;;;;;12.90;5.95;;;;;;;33.78;48.51;100195.66;6561004;27;34453;-84
2023/07/17 14:32:28;;;;;;;12.10;5.80;;;;;;;33.90;49.09;100203.28;6582709;27;33666;-83
2023/07/17 14:35:31;;;;;;;12.73;5.55;;;;;;;33.80;48.99;100198.12;6582641;27;33829;-83
2023/07/17 14:38:36;;;;;;;10.45;6.20;;;;;;;33.33;50.19;100201.78;6562616;27;33397;-83
2023/07/17 14:41:39;;;;;;;10.95;6.57;;;;;;;33.13;51.43;100194.97;6579584;27;33500;-84
2023/07/17 14:44:42;;;;;;;12.00;6.30;;;;;;;33.14;52.09;100196.63;6580973;26;35132;-84
2023/07/17 14:47:44;;;;;;;11.68;6.03;;;;;;;33.17;52.61;100198.75;6544108;27;35142;-84
2023/07/17 14:50:48;;;;;;;10.55;5.87;;;;;;;33.40;52.82;100184.53;6541274;27;33444;-83
2023/07/17 14:53:52;;;;;;;7.37;5.85;;;;;;;33.82;51.39;100179.06;6558897;27;33854;-84
2023/07/17 14:56:54;;;;;;;8.95;5.72;;;;;;;33.72;52.30;100179.44;6578365;27;33299;-83
2023/07/17 14:59:57;;;;;;;6.82;5.68;;;;;;;33.25;53.93;100185.09;6578217;27;33354;-84
2023/07/17 15:03:00;;;;;;;6.90;5.70;;;;;;;33.23;54.63;100181.81;6558854;27;33796;-84
2023/07/17 15:06:03;;;;;;;7.57;6.00;;;;;;;33.29;54.66;100194.41;6558917;27;33296;-84
2023/07/17 15:09:06;;;;;;;7.47;6.18;;;;;;;32.99;54.70;100202.75;6578325;27;33731;-84
2023/07/17 15:12:09;;;;;;;7.75;6.18;;;;;;;32.92;54.70;100188.47;6578019;27;33383;-84
2023/07/17 15:15:12;;;;;;;9.75;6.05;;;;;;;32.80;55.10;100193.94;6559376;27;33394;-84
2023/07/17 15:18:15;;;;;;;6.47;5.70;;;;;;;32.84;54.90;100194.88;6541991;27;33445;-84
2023/07/17 15:21:18;;;;;;;6.20;5.43;;;;;;;32.92;53.88;100192.06;6559116;27;34181;-84
2023/07/17 15:24:21;;;;;;;10.85;6.20;;;;;;;33.15;53.40;100183.50;6559539;27;33240;-83
2023/07/17 15:27:24;;;;;;;8.40;5.65;;;;;;;33.25;52.74;100182.31;6541642;27;33324;-84
2023/07/17 15:30:27;;;;;;;8.20;5.65;;;;;;;33.31;51.87;100194.91;6559042;27;34303;-84
2023/07/17 15:33:30;;;;;;;7.37;5.72;;;;;;;33.33;52.38;100193.44;6578646;27;34050;-84
2023/07/17 15:36:33;;;;;;;7.72;5.40;;;;;;;33.08;52.08;100206.31;6559961;27;33002;-84
2023/07/17 15:39:35;;;;;;;6.40;5.40;;;;;;;32.53;53.23;100207.09;6542133;27;33367;-84
2023/07/17 15:42:38;;;;;;;5.78;5.28;;;;;;;32.18;54.40;100211.81;6523994;27;33574;-84
2023/07/17 15:45:41;;;;;;;5.97;5.10;;;;;;;32.01;54.63;100216.22;6559300;27;34361;-84
2023/07/17 15:48:44;;;;;;;5.90;5.18;;;;;;;32.02;54.39;100219.81;6541232;27;34079;-84
2023/07/17 15:51:47;;;;;;;8.60;5.00;;;;;;;31.72;54.50;100222.38;6543386;27;33455;-84
2023/07/17 15:54:50;;;;;;;9.45;5.65;;;;;;;31.73;54.79;100234.31;6559175;27;34215;-87
2023/07/17 15:57:52;;;;;;;5.50;4.78;;;;;;;31.77;54.35;100229.75;6559048;27;33563;-88
2023/07/17 16:00:55;;;;;;;5.43;4.68;;;;;;;31.61;54.75;100232.16;6559018;27;33046;-88
2023/07/17 16:03:59;;;;;;;7.70;4.87;;;;;;;31.79;54.31;100241.38;6559342;27;33720;-88
2023/07/17 16:07:02;;;;;;;5.75;4.90;;;;;;;31.72;54.39;100244.63;6559253;27;33193;-84
2023/07/17 16:10:06;;;;;;;5.65;4.80;;;;;;;31.85;54.13;100248.41;6541098;27;34086;-84
2023/07/17 16:13:08;;;;;;;7.10;4.68;;;;;;;31.87;53.73;100250.91;6559212;27;32861;-84
2023/07/17 16:16:11;;;;;;;4.70;4.30;;;;;;;31.99;52.46;100251.94;6559615;27;33111;-84
2023/07/17 16:19:14;;;;;;;4.85;4.07;;;;;;;31.97;52.82;100251.44;6562458;27;34111;-84
2023/07/17 16:22:17;;;;;;;6.47;4.22;;;;;;;31.97;51.47;100251.44;6542874;27;33698;-84
2023/07/17 16:25:20;;;;;;;5.10;4.10;;;;;;;31.95;51.62;100250.94;6543282;27;34186;-84
2023/07/17 16:28:23;;;;;;;6.05;4.50;;;;;;;32.05;52.51;100247.03;6564158;27;34091;-84
2023/07/17 16:31:26;;;;;;;5.18;4.18;;;;;;;31.97;51.52;100248.66;6545938;27;33197;-84
2023/07/17 16:34:29;;;;;;;9.70;4.40;;;;;;;32.05;51.74;100249.81;6548681;27;33330;-84
2023/07/17 16:37:31;;;;;;;5.97;4.12;;;;;;;31.77;52.23;100257.59;6571429;27;33030;-84
2023/07/17 16:40:34;;;;;;;4.97;3.97;;;;;;;31.54;51.89;100259.62;6585568;27;34100;-84
